Oliva, Spain
Current Conditions -  °F | °C
As of 3:30 AM on Saturday 29 Nov 2014 (Local Time) from LEVC Reporting Station
Scattered Clouds Scattered Clouds  
Wind Chill: 61°   Ceiling: Unl
Heat Index: 61°   Visibility: 6mi
Dew Point: 57°   Wind: 7mph
Humidity: 88%   Direction: 80°E
Pressure: 29.29"   Gusts: NA
Location:  38.92°N, 0.12°W
Report Text: LEVC 290230Z 08006KT 9999 FEW015 SCT055 16/14 Q0992 NOSIG
Loading
Personal Weather Stations






























Interactive Weather Map New forecast layout! Learn more

10-Day Weather Forecast

Advertisements
Track Severe Weather on mobile